createdAt,value
2018-05-16T00:00:13.803Z,7.67
2018-05-16T00:02:43.578Z,7.87
2018-05-16T00:05:13.297Z,7.73
2018-05-16T00:07:43.077Z,7.63
2018-05-16T00:10:13.109Z,8.40
2018-05-16T00:12:43.148Z,8.20
2018-05-16T00:15:13.179Z,8.23
2018-05-16T00:17:42.875Z,8.67
2018-05-16T00:20:12.643Z,8.00
2018-05-16T00:22:43.013Z,7.67
2018-05-16T00:25:12.848Z,7.87
2018-05-16T00:27:42.653Z,7.63
2018-05-16T00:30:12.415Z,8.53
2018-05-16T00:32:42.116Z,9.03
2018-05-16T00:35:11.779Z,9.43
2018-05-16T00:37:41.751Z,8.53
2018-05-16T00:40:11.509Z,8.83
2018-05-16T00:42:41.218Z,9.10
2018-05-16T00:45:10.923Z,9.13
2018-05-16T00:47:40.607Z,9.93
2018-05-16T00:50:10.399Z,9.47
2018-05-16T00:52:40.080Z,9.93
2018-05-16T00:55:09.755Z,9.30
2018-05-16T00:57:40.091Z,9.73
2018-05-16T01:00:09.771Z,9.30
2018-05-16T01:02:39.436Z,10.13
2018-05-16T01:05:09.775Z,9.30
2018-05-16T01:07:39.555Z,9.50
2018-05-16T01:10:09.921Z,8.87
2018-05-16T01:12:39.707Z,8.63
2018-05-16T01:15:10.036Z,8.60
2018-05-16T01:17:39.836Z,8.77
2018-05-16T01:20:09.621Z,8.53
2018-05-16T01:22:39.364Z,8.23
2018-05-16T01:25:09.160Z,8.33
2018-05-16T01:27:38.891Z,8.50
2018-05-16T01:30:08.569Z,8.13
2018-05-16T01:32:38.248Z,8.20
2018-05-16T01:35:07.982Z,8.17
2018-05-16T01:37:37.912Z,8.47
2018-05-16T01:40:07.680Z,7.87
2018-05-16T01:42:37.385Z,8.43
2018-05-16T01:45:07.144Z,8.00
2018-05-16T01:47:36.883Z,8.20
2018-05-16T01:50:07.396Z,8.07
2018-05-16T01:52:37.782Z,8.07
2018-05-16T01:55:08.230Z,8.13
2018-05-16T01:57:38.686Z,8.50
2018-05-16T02:00:09.355Z,8.63
2018-05-16T02:02:40.032Z,8.00
2018-05-16T02:05:10.501Z,7.80
2018-05-16T02:07:40.376Z,8.27
2018-05-16T02:10:10.479Z,8.50
2018-05-16T02:12:40.205Z,8.57
2018-05-16T02:15:09.923Z,7.87
2018-05-16T02:17:39.620Z,7.67
2018-05-16T02:20:09.312Z,8.03
2018-05-16T02:22:39.111Z,8.33
2018-05-16T02:25:09.860Z,8.40
2018-05-16T02:27:40.252Z,8.30
2018-05-16T02:30:10.551Z,8.00
2018-05-16T02:32:40.289Z,8.17
2018-05-16T02:35:10.554Z,8.00
2018-05-16T02:37:40.396Z,8.83
2018-05-16T02:40:11.042Z,8.13
2018-05-16T02:42:40.762Z,9.07
2018-05-16T02:45:11.069Z,8.50
2018-05-16T02:47:41.823Z,8.77
2018-05-16T02:50:12.214Z,8.40
2018-05-16T02:52:42.120Z,8.33
2018-05-16T02:55:12.558Z,8.23
2018-05-16T02:57:42.529Z,8.53
2018-05-16T03:00:12.819Z,8.07
2018-05-16T03:02:43.091Z,9.27
2018-05-16T03:05:13.372Z,8.60
2018-05-16T03:07:43.356Z,8.43
2018-05-16T03:10:13.928Z,8.27
2018-05-16T03:12:44.315Z,8.67
2018-05-16T03:15:14.911Z,8.30
2018-05-16T03:17:45.388Z,8.40
2018-05-16T03:20:15.406Z,8.63
2018-05-16T03:22:45.597Z,8.80
2018-05-16T03:25:15.727Z,8.37
2018-05-16T03:27:45.965Z,9.07
2018-05-16T03:30:16.628Z,8.97
2018-05-16T03:32:46.363Z,8.13
2018-05-16T03:35:16.889Z,8.50
2018-05-16T03:37:46.639Z,8.10
2018-05-16T03:40:16.805Z,8.77
2018-05-16T03:42:46.513Z,8.37
2018-05-16T03:45:16.212Z,7.83
2018-05-16T03:47:45.936Z,9.93
2018-05-16T03:50:15.656Z,8.80
2018-05-16T03:52:45.358Z,9.63
2018-05-16T03:55:15.112Z,9.40
2018-05-16T03:58:09.443Z,8.13
2018-05-16T04:00:50.730Z,8.67
2018-05-16T04:03:32.343Z,9.63
2018-05-16T04:06:02.026Z,8.67
2018-05-16T04:08:31.702Z,7.73
2018-05-16T04:11:01.458Z,8.83
2018-05-16T04:13:31.170Z,8.57
2018-05-16T04:16:00.893Z,8.60
2018-05-16T04:18:30.617Z,8.87
2018-05-16T04:21:00.563Z,8.40
2018-05-16T04:23:30.328Z,8.63
2018-05-16T04:26:00.032Z,9.20
2018-05-16T04:28:29.715Z,8.00
2018-05-16T04:30:59.418Z,8.73
2018-05-16T04:33:29.080Z,9.10
2018-05-16T04:35:58.761Z,8.47
2018-05-16T04:38:28.490Z,9.70
2018-05-16T04:40:58.150Z,8.90
2018-05-16T04:43:27.832Z,9.57
2018-05-16T04:45:57.580Z,9.23
2018-05-16T04:48:27.275Z,8.83
2018-05-16T04:50:56.999Z,9.70
2018-05-16T04:53:26.669Z,9.33
2018-05-16T04:55:56.372Z,9.27
2018-05-16T04:58:26.180Z,9.53
2018-05-16T05:00:55.897Z,8.53
2018-05-16T05:03:25.573Z,10.03
2018-05-16T05:05:55.297Z,9.13
2018-05-16T05:08:24.992Z,9.33
2018-05-16T05:10:54.672Z,8.67
2018-05-16T05:13:24.380Z,8.70
2018-05-16T05:15:54.099Z,9.53
2018-05-16T05:18:23.888Z,9.70
2018-05-16T05:20:53.564Z,8.77
2018-05-16T05:23:23.252Z,9.20
2018-05-16T05:25:53.000Z,9.33
2018-05-16T05:28:22.681Z,7.93
2018-05-16T05:30:52.356Z,9.83
2018-05-16T05:33:22.099Z,8.03
2018-05-16T05:35:51.802Z,8.40
2018-05-16T05:38:21.470Z,8.70
2018-05-16T05:40:51.172Z,8.73
2018-05-16T05:43:20.886Z,7.70
2018-05-16T05:45:50.617Z,8.33
2018-05-16T05:48:20.337Z,10.33
2018-05-16T05:50:50.038Z,9.10
2018-05-16T05:53:19.791Z,8.40
2018-05-16T05:55:49.553Z,8.60
2018-05-16T05:58:20.773Z,10.03
2018-05-16T06:00:50.465Z,9.07
2018-05-16T06:03:20.127Z,8.13
2018-05-16T06:05:49.871Z,8.10
2018-05-16T06:08:19.625Z,15.60
2018-05-16T06:10:49.346Z,8.60
2018-05-16T06:13:19.075Z,8.27
2018-05-16T06:15:48.757Z,8.00
2018-05-16T06:18:18.521Z,9.67
2018-05-16T06:20:48.217Z,9.27
2018-05-16T06:23:17.921Z,8.47
2018-05-16T06:25:47.672Z,9.20
2018-05-16T06:28:17.398Z,8.87
2018-05-16T06:30:47.086Z,9.20
2018-05-16T06:33:16.816Z,7.57
2018-05-16T06:35:46.515Z,7.50
2018-05-16T06:38:16.211Z,8.23
2018-05-16T06:40:45.937Z,8.10
2018-05-16T06:43:15.624Z,8.50
2018-05-16T06:45:45.370Z,8.40
2018-05-16T06:48:15.053Z,8.00
2018-05-16T06:50:44.719Z,8.10
2018-05-16T06:53:14.533Z,10.33
2018-05-16T06:55:44.224Z,8.80
2018-05-16T06:58:13.957Z,8.80
2018-05-16T07:00:43.692Z,8.43
2018-05-16T07:03:13.395Z,8.90
2018-05-16T07:05:43.151Z,8.43
2018-05-16T07:08:12.901Z,8.27
2018-05-16T07:10:42.603Z,7.63
2018-05-16T07:13:12.321Z,7.93
2018-05-16T07:15:42.013Z,7.60
2018-05-16T07:18:11.724Z,7.90
2018-05-16T07:20:41.445Z,7.53
2018-05-16T07:23:11.154Z,8.47
2018-05-16T07:25:40.892Z,7.87
2018-05-16T07:28:10.561Z,8.20
2018-05-16T07:30:40.256Z,6.90
2018-05-16T07:33:09.952Z,7.20
2018-05-16T07:35:39.620Z,7.30
2018-05-16T07:38:09.321Z,7.73
2018-05-16T07:40:39.101Z,7.60
2018-05-16T07:43:08.820Z,6.77
2018-05-16T07:45:38.576Z,6.60
2018-05-16T07:48:08.317Z,6.17
2018-05-16T07:50:37.988Z,6.20
2018-05-16T07:53:07.678Z,5.77
2018-05-16T07:55:37.342Z,5.77
2018-05-16T07:58:07.028Z,5.93
2018-05-16T08:00:36.746Z,5.97
2018-05-16T08:03:06.584Z,5.67
2018-05-16T08:05:36.245Z,5.13
2018-05-16T08:08:05.971Z,5.50
2018-05-16T08:10:35.646Z,5.30
2018-05-16T08:13:05.376Z,5.00
2018-05-16T08:15:35.106Z,5.67
2018-05-16T08:18:05.102Z,5.23
2018-05-16T08:20:34.848Z,5.30
2018-05-16T08:23:04.579Z,5.50
2018-05-16T08:25:34.334Z,5.03
2018-05-16T08:28:04.109Z,5.40
2018-05-16T08:30:33.822Z,4.73
2018-05-16T08:33:03.562Z,5.20
2018-05-16T08:35:33.295Z,4.77
2018-05-16T08:38:02.982Z,5.20
2018-05-16T08:40:32.739Z,12.83
2018-05-16T08:43:02.490Z,4.70
2018-05-16T08:45:32.193Z,7.53
2018-05-16T08:48:01.932Z,4.83
2018-05-16T08:50:31.627Z,4.47
2018-05-16T08:53:01.310Z,4.60
2018-05-16T08:55:31.103Z,4.77
2018-05-16T08:58:00.784Z,5.37
2018-05-16T09:00:30.522Z,4.67
2018-05-16T09:03:00.323Z,4.93
2018-05-16T09:05:29.999Z,5.00
2018-05-16T09:07:59.753Z,4.53
2018-05-16T09:10:29.448Z,4.60
2018-05-16T09:12:59.210Z,5.83
2018-05-16T09:15:28.958Z,5.07
2018-05-16T09:17:58.608Z,4.97
2018-05-16T09:20:28.323Z,4.50
2018-05-16T09:22:58.017Z,5.10
2018-05-16T09:25:27.687Z,4.23
2018-05-16T09:27:57.407Z,4.30
2018-05-16T09:30:27.094Z,4.53
2018-05-16T09:32:56.754Z,4.83
2018-05-16T09:35:26.496Z,5.30
2018-05-16T09:37:56.232Z,11.70
2018-05-16T09:40:26.013Z,10.30
2018-05-16T09:42:55.708Z,20.70
2018-05-16T09:45:25.371Z,4.10
2018-05-16T09:47:55.080Z,4.50
2018-05-16T09:50:24.796Z,4.70
2018-05-16T09:52:54.512Z,4.20
2018-05-16T09:55:25.309Z,3.87
2018-05-16T09:57:55.142Z,3.90
2018-05-16T10:00:30.437Z,3.90
2018-05-16T10:03:00.154Z,4.40
2018-05-16T10:05:29.818Z,4.00
2018-05-16T10:07:59.563Z,4.10
2018-05-16T10:10:29.300Z,3.80
2018-05-16T10:12:58.995Z,4.90
2018-05-16T10:15:28.733Z,3.70
2018-05-16T10:17:58.435Z,3.50
2018-05-16T10:20:28.169Z,4.00
2018-05-16T10:22:57.879Z,3.53
2018-05-16T10:25:27.589Z,4.67
2018-05-16T10:27:57.309Z,4.10
2018-05-16T10:30:27.012Z,4.30
2018-05-16T10:32:56.697Z,4.10
2018-05-16T10:35:26.429Z,4.10
2018-05-16T10:37:56.158Z,5.37
2018-05-16T10:40:25.839Z,5.20
2018-05-16T10:42:55.559Z,5.20
2018-05-16T10:45:25.238Z,5.80
2018-05-16T10:47:54.962Z,5.10
2018-05-16T10:50:24.708Z,4.90
2018-05-16T10:52:54.368Z,5.00
2018-05-16T10:55:24.084Z,5.10
2018-05-16T10:57:53.780Z,5.30
2018-05-16T11:00:23.645Z,4.70
2018-05-16T11:02:53.448Z,5.13
2018-05-16T11:05:23.338Z,4.90
2018-05-16T11:07:53.083Z,5.67
2018-05-16T11:10:22.801Z,5.47
2018-05-16T11:12:52.512Z,4.70
2018-05-16T11:15:22.218Z,5.13
2018-05-16T11:17:54.356Z,4.70
2018-05-16T11:20:24.064Z,4.93
2018-05-16T11:22:53.787Z,4.40
2018-05-16T11:25:23.455Z,4.53
2018-05-16T11:27:53.167Z,4.43
2018-05-16T11:30:22.980Z,4.67
2018-05-16T11:32:52.662Z,4.50
2018-05-16T11:35:22.369Z,4.87
2018-05-16T11:37:52.069Z,4.30
2018-05-16T11:40:21.777Z,5.53
2018-05-16T11:42:51.528Z,4.47
2018-05-16T11:45:21.207Z,4.25
2018-05-16T11:47:50.943Z,4.07
2018-05-16T11:50:20.691Z,4.93
2018-05-16T11:52:50.371Z,4.70
2018-05-16T11:55:20.124Z,4.55
2018-05-16T11:57:49.845Z,4.50
2018-05-16T12:00:19.519Z,4.63
2018-05-16T12:02:49.311Z,5.57
2018-05-16T12:05:18.999Z,4.77
2018-05-16T12:07:48.774Z,4.30
2018-05-16T12:10:18.440Z,3.90
2018-05-16T12:12:48.105Z,4.97
2018-05-16T12:15:17.837Z,4.12
2018-05-16T12:17:47.522Z,4.27
2018-05-16T12:20:17.203Z,4.62
2018-05-16T12:22:46.942Z,4.05
2018-05-16T12:25:16.681Z,3.67
2018-05-16T12:27:46.390Z,3.80
2018-05-16T12:30:16.102Z,4.20
2018-05-16T12:32:45.799Z,3.92
2018-05-16T12:35:15.475Z,4.07
2018-05-16T12:37:45.219Z,3.95
2018-05-16T12:40:14.956Z,3.53
2018-05-16T12:42:56.411Z,4.07
2018-05-16T12:45:26.125Z,4.30
2018-05-16T12:47:55.846Z,3.80
2018-05-16T12:50:25.520Z,3.97
2018-05-16T12:52:55.224Z,3.83
2018-05-16T12:55:24.948Z,4.50
2018-05-16T12:57:54.611Z,3.72
2018-05-16T13:00:24.298Z,4.60
2018-05-16T13:02:54.047Z,3.80
2018-05-16T13:05:23.759Z,3.70
2018-05-16T13:07:53.470Z,3.50
2018-05-16T13:10:23.175Z,3.87
2018-05-16T13:12:52.850Z,3.37
2018-05-16T13:15:22.608Z,3.65
2018-05-16T13:17:52.285Z,4.55
2018-05-16T13:20:21.954Z,3.53
2018-05-16T13:22:51.676Z,3.95
2018-05-16T13:25:21.379Z,4.28
2018-05-16T13:27:51.086Z,4.03
2018-05-16T13:30:20.816Z,3.67
2018-05-16T13:32:50.513Z,3.55
2018-05-16T13:35:20.221Z,3.70
2018-05-16T13:37:49.957Z,3.42
2018-05-16T13:40:19.641Z,3.28
2018-05-16T13:42:49.359Z,3.83
2018-05-16T13:45:19.072Z,3.37
2018-05-16T13:47:48.778Z,3.33
2018-05-16T13:50:18.545Z,4.62
2018-05-16T13:52:48.233Z,3.50
2018-05-16T13:55:17.908Z,3.05
2018-05-16T13:57:47.677Z,3.80
2018-05-16T14:00:17.432Z,3.33
2018-05-16T14:02:47.132Z,3.60
2018-05-16T14:05:16.836Z,3.42
2018-05-16T14:07:46.513Z,3.60
2018-05-16T14:10:16.193Z,3.62
2018-05-16T14:12:45.914Z,4.05
2018-05-16T14:15:15.620Z,3.70
2018-05-16T14:17:45.301Z,3.85
2018-05-16T14:20:14.992Z,3.83
2018-05-16T14:22:44.734Z,3.87
2018-05-16T14:25:14.449Z,3.62
2018-05-16T14:27:44.131Z,3.75
2018-05-16T14:30:13.848Z,3.92
2018-05-16T14:32:43.506Z,3.60
2018-05-16T14:35:13.200Z,3.42
2018-05-16T14:37:42.904Z,3.47
2018-05-16T14:40:12.596Z,3.40
2018-05-16T14:42:42.477Z,3.12
2018-05-16T14:45:12.123Z,3.80
2018-05-16T14:47:45.022Z,3.53
2018-05-16T14:50:14.740Z,3.65
2018-05-16T14:52:44.472Z,3.90
2018-05-16T14:55:14.168Z,3.70
2018-05-16T14:57:43.888Z,3.60
2018-05-16T15:00:13.656Z,3.40
2018-05-16T15:02:43.403Z,3.80
2018-05-16T15:05:13.130Z,3.80
2018-05-16T15:07:42.829Z,3.65
2018-05-16T15:10:12.515Z,3.90
2018-05-16T15:12:42.252Z,3.90
2018-05-16T15:15:11.974Z,4.60
2018-05-16T15:17:41.727Z,4.12
2018-05-16T15:20:11.501Z,3.85
2018-05-16T15:22:41.202Z,3.78
2018-05-16T15:25:11.095Z,3.97
2018-05-16T15:27:40.853Z,3.90
2018-05-16T15:30:10.663Z,3.78
2018-05-16T15:32:40.459Z,5.07
2018-05-16T15:35:10.226Z,4.03
2018-05-16T15:37:39.981Z,9.15
2018-05-16T15:40:09.714Z,4.22
2018-05-16T15:42:39.411Z,3.53
2018-05-16T15:45:09.267Z,3.85
2018-05-16T15:47:38.976Z,3.70
2018-05-16T15:50:08.704Z,4.22
2018-05-16T15:52:38.541Z,4.00
2018-05-16T15:55:08.266Z,3.83
2018-05-16T15:57:38.027Z,4.70
2018-05-16T16:00:07.823Z,5.40
2018-05-16T16:02:37.518Z,3.90
2018-05-16T16:05:07.373Z,4.10
2018-05-16T16:07:37.109Z,4.80
2018-05-16T16:10:06.878Z,5.10
2018-05-16T16:12:36.596Z,5.67
2018-05-16T16:15:06.345Z,5.10
2018-05-16T16:17:36.113Z,4.50
2018-05-16T16:20:05.846Z,4.57
2018-05-16T16:22:35.584Z,3.93
2018-05-16T16:25:05.324Z,4.60
2018-05-16T16:27:35.038Z,4.40
2018-05-16T16:30:04.827Z,4.80
2018-05-16T16:32:34.534Z,4.37
2018-05-16T16:35:04.294Z,5.23
2018-05-16T16:37:34.065Z,4.77
2018-05-16T16:40:03.842Z,7.20
2018-05-16T16:42:33.571Z,5.67
2018-05-16T16:45:03.338Z,4.70
2018-05-16T16:47:33.015Z,4.60
2018-05-16T16:50:02.771Z,4.73
2018-05-16T16:52:32.444Z,4.40
2018-05-16T16:55:02.141Z,4.70
2018-05-16T16:57:31.911Z,4.60
2018-05-16T17:00:01.637Z,3.97
2018-05-16T17:02:31.371Z,4.40
2018-05-16T17:05:01.149Z,4.70
2018-05-16T17:07:30.901Z,4.47
2018-05-16T17:10:00.655Z,4.43
2018-05-16T17:12:30.407Z,4.63
2018-05-16T17:15:00.149Z,4.50
2018-05-16T17:17:29.889Z,4.23
2018-05-16T17:19:59.583Z,4.90
2018-05-16T17:22:29.270Z,4.80
2018-05-16T17:24:59.012Z,4.43
2018-05-16T17:27:28.695Z,4.27
2018-05-16T17:29:58.414Z,4.23
2018-05-16T17:32:28.143Z,3.70
2018-05-16T17:34:57.868Z,3.97
2018-05-16T17:37:27.620Z,3.93
2018-05-16T17:39:57.352Z,4.07
2018-05-16T17:42:27.064Z,4.10
2018-05-16T17:44:56.897Z,4.07
2018-05-16T17:47:28.026Z,3.80
2018-05-16T17:49:58.405Z,4.03
2018-05-16T17:52:28.784Z,3.57
2018-05-16T17:55:00.044Z,4.10
2018-05-16T17:57:30.370Z,5.07
2018-05-16T18:00:00.712Z,3.57
2018-05-16T18:02:31.136Z,4.30
2018-05-16T18:05:00.873Z,4.43
2018-05-16T18:07:30.656Z,4.43
2018-05-16T18:10:00.421Z,4.20
2018-05-16T18:12:30.172Z,4.40
2018-05-16T18:15:18.646Z,3.90
2018-05-16T18:17:48.434Z,3.97
2018-05-16T18:20:18.143Z,3.97
2018-05-16T18:22:47.926Z,4.33
2018-05-16T18:25:17.606Z,4.27
2018-05-16T18:27:47.385Z,4.33
2018-05-16T18:30:17.874Z,4.97
2018-05-16T18:32:48.045Z,4.50
2018-05-16T18:35:17.765Z,4.10
2018-05-16T18:37:47.568Z,4.20
2018-05-16T18:40:17.267Z,4.53
2018-05-16T18:42:47.007Z,4.20
2018-05-16T18:45:16.745Z,4.33
2018-05-16T18:47:46.481Z,4.30
2018-05-16T18:50:16.264Z,4.80
2018-05-16T18:52:46.029Z,4.73
2018-05-16T18:55:15.753Z,4.23
2018-05-16T18:57:45.504Z,5.17
2018-05-16T19:00:15.272Z,4.80
2018-05-16T19:02:44.986Z,4.60
2018-05-16T19:05:14.782Z,4.97
2018-05-16T19:07:44.510Z,4.60
2018-05-16T19:10:14.310Z,4.87
2018-05-16T19:12:44.062Z,4.43
2018-05-16T19:15:13.781Z,5.13
2018-05-16T19:17:43.515Z,5.27
2018-05-16T19:20:13.191Z,4.70
2018-05-16T19:22:42.916Z,4.70
2018-05-16T19:25:12.669Z,5.30
2018-05-16T19:27:42.421Z,4.93
2018-05-16T19:30:12.188Z,5.00
2018-05-16T19:32:41.911Z,4.90
2018-05-16T19:35:11.941Z,4.97
2018-05-16T19:37:42.014Z,5.70
2018-05-16T19:40:12.043Z,4.70
2018-05-16T19:42:42.614Z,5.00
2018-05-16T19:45:13.004Z,5.00
2018-05-16T19:47:43.775Z,5.30
2018-05-16T19:50:13.947Z,5.00
2018-05-16T19:52:44.259Z,4.80
2018-05-16T19:55:14.083Z,5.47
2018-05-16T19:57:44.606Z,5.47
2018-05-16T20:00:14.959Z,5.13
2018-05-16T20:02:45.284Z,5.67
2018-05-16T20:05:15.949Z,5.30
2018-05-16T20:07:46.679Z,5.17
2018-05-16T20:10:17.013Z,5.00
2018-05-16T20:12:46.937Z,4.87
2018-05-16T20:15:16.741Z,4.90
2018-05-16T20:17:46.940Z,4.83
2018-05-16T20:20:17.457Z,5.30
2018-05-16T20:22:47.996Z,5.10
2018-05-16T20:25:18.559Z,5.00
2018-05-16T20:27:49.222Z,4.77
2018-05-16T20:30:20.139Z,4.70
2018-05-16T20:32:50.729Z,4.73
2018-05-16T20:35:21.231Z,4.90
2018-05-16T20:37:52.161Z,4.87
2018-05-16T20:40:22.536Z,5.20
2018-05-16T20:42:53.658Z,4.63
2018-05-16T20:45:24.389Z,4.63
2018-05-16T20:47:55.138Z,4.43
2018-05-16T20:50:24.890Z,4.97
2018-05-16T20:52:54.906Z,4.83
2018-05-16T20:55:24.705Z,4.43
2018-05-16T20:57:55.141Z,4.70
2018-05-16T21:00:25.593Z,4.87
2018-05-16T21:02:55.988Z,4.80
2018-05-16T21:05:26.282Z,4.50
2018-05-16T21:07:56.755Z,4.77
2018-05-16T21:10:27.133Z,4.43
2018-05-16T21:12:57.883Z,4.87
2018-05-16T21:15:27.643Z,5.00
2018-05-16T21:17:57.740Z,4.73
2018-05-16T21:20:28.122Z,5.00
2018-05-16T21:22:58.536Z,5.03
2018-05-16T21:25:28.944Z,5.17
2018-05-16T21:30:35.957Z,4.80
2018-05-16T21:33:05.989Z,4.87
2018-05-16T21:35:35.777Z,4.90
2018-05-16T21:38:06.069Z,4.50
2018-05-16T21:40:37.045Z,5.07
2018-05-16T21:43:06.807Z,4.80
2018-05-16T21:45:36.889Z,5.83
2018-05-16T21:48:07.209Z,5.37
2018-05-16T21:50:37.461Z,5.60
2018-05-16T21:53:07.700Z,5.30
2018-05-16T21:55:37.975Z,5.67
2018-05-16T21:58:08.591Z,5.70
2018-05-16T22:00:38.473Z,4.87
2018-05-16T22:03:08.487Z,4.83
2018-05-16T22:05:38.807Z,5.73
2018-05-16T22:08:08.828Z,5.30
2018-05-16T22:10:38.899Z,5.80
2018-05-16T22:13:09.168Z,5.77
2018-05-16T22:15:39.337Z,5.90
2018-05-16T22:18:09.362Z,5.90
2018-05-16T22:20:39.932Z,5.97
2018-05-16T22:23:10.117Z,5.90
2018-05-16T22:25:39.942Z,5.63
2018-05-16T22:28:10.185Z,6.17
2018-05-16T22:30:46.236Z,5.90
2018-05-16T22:33:22.116Z,5.73
2018-05-16T22:35:58.028Z,5.83
2018-05-16T22:38:33.929Z,6.63
2018-05-16T22:41:09.412Z,5.80
2018-05-16T22:43:57.444Z,5.97
2018-05-16T22:46:27.860Z,5.90
2018-05-16T22:48:57.581Z,6.07
2018-05-16T22:51:27.379Z,6.53
2018-05-16T22:53:57.235Z,6.83
2018-05-16T22:56:27.499Z,6.47
2018-05-16T22:58:58.077Z,6.47
2018-05-16T23:01:28.101Z,7.00
2018-05-16T23:03:58.127Z,6.70
2018-05-16T23:06:28.263Z,6.37
2018-05-16T23:08:58.653Z,6.27
2018-05-16T23:11:28.925Z,6.83
2018-05-16T23:13:58.612Z,6.60
2018-05-16T23:16:28.514Z,6.70
2018-05-16T23:18:58.888Z,6.47
2018-05-16T23:21:29.152Z,6.63
2018-05-16T23:23:59.427Z,6.90
2018-05-16T23:26:29.960Z,6.70
2018-05-16T23:29:00.152Z,7.10
2018-05-16T23:31:30.640Z,7.60
2018-05-16T23:34:00.738Z,7.90
2018-05-16T23:36:30.504Z,7.63
2018-05-16T23:39:00.596Z,7.67
2018-05-16T23:41:30.782Z,7.60
2018-05-16T23:44:00.999Z,7.20
2018-05-16T23:46:31.369Z,7.80
2018-05-16T23:49:01.627Z,7.13
2018-05-16T23:51:31.376Z,7.40
2018-05-16T23:54:01.876Z,8.33
2018-05-16T23:56:32.058Z,8.13
2018-05-16T23:59:01.740Z,8.50
